Anderson Regional Airport Anderson US
ICAO: KAND
IATA: AND
Category: Medium
Scheduled Services: No

Elevation: 782 ft
TransAlt. 18000 ft.

Airport Communications:
GREER APP/DEP:118.8
ASOS:120.675
CTAF:123.6
RDO:122.2
UNICOM:122.95

KAND Zoom In..

Runways:

(A) RW 05 length 6002 ft width 149 ft
ILS 111.90 / hdg 51

(B) RW 17 length 4996 ft width 149 ft
---- / hdg 171

(C) RW 23 length 6002 ft width 149 ft
---- / hdg 231

(D) RW 35 length 4996 ft width 149 ft
---- / hdg 351

Location; KAND
Day. 24 / Time. 01.56 Zulu
* Altimeter: 30.04
* Temperature: 08° c. 46.4°f.
* Wind from: 280° Speed 07 kn.
Dewpoint: 00° c.
Visibility: 10 Statute Miles.
Clouds: Clear (automated report).

KAND 240156Z AUTO 28007KT 10SM CLR 08/00 A3004 RMK AO2 SLP170 T00780000


Wind From 280°
Speed 07 kn.

YouTube Music Video
 
jpsmedia.com for Web Design  worldairports.se 2018   terms of use